This is the latest recevied weather packets stored in our database for station/object SV9TNF-2. If no packets are shown the sender has not sent any weather packets the latest 10 day(s).
| Time | Temp. | Humidity | Pressure | Rain* | Wind** | Luminosity | Snow |
|---|---|---|---|---|---|---|---|
| 1777703742 | 13.33° C | 75% | 1022 hPa | 0 mm | 1.34 m/s, 75° | - | - |
| 1777703442 | 12.78° C | 73% | 1022 hPa | 0 mm | 8.05 m/s, 206° | - | - |
| 1777703142 | 12.78° C | 73% | 1022 hPa | 0 mm | 6.26 m/s, 172° | - | - |
| 1777702842 | 13.89° C | 71% | 1021.7 hPa | 0 mm | 7.6 m/s, 179° | - | - |
| 1777702542 | 14.44° C | 69% | 1021.7 hPa | 0 mm | 4.02 m/s, 4° | - | - |
| 1777702242 | 14.44° C | 66% | 1021.7 hPa | 0 mm | 3.13 m/s, 91° | - | - |
| 1777701942 | 14.44° C | 67% | 1021.7 hPa | 0 mm | 3.58 m/s, 96° | - | - |
| 1777701641 | 14.44° C | 68% | 1021.7 hPa | 0 mm | 5.36 m/s, 65° | - | - |
| 1777701341 | 14.44° C | 66% | 1021.7 hPa | 0 mm | 4.02 m/s, 74° | - | - |
| 1777701041 | 14.44° C | 67% | 1021.7 hPa | 0 mm | 8.49 m/s, 71° | - | - |
| 1777700742 | 14.44° C | 67% | 1021.7 hPa | 0 mm | 6.71 m/s, 78° | - | - |
| 1777700441 | 14.44° C | 64% | 1021.7 hPa | 0 mm | 8.94 m/s, 90° | - | - |
| 1777700141 | 14.44° C | 68% | 1021.7 hPa | 0 mm | 7.15 m/s, 87° | - | - |
| 1777699841 | 15° C | 64% | 1021.7 hPa | 0 mm | 5.81 m/s, 75° | - | - |
| 1777699541 | 15° C | 67% | 1021.7 hPa | 0 mm | 8.49 m/s, 73° | - | - |
| 1777699241 | 14.44° C | 63% | 1021.7 hPa | 0 mm | 5.36 m/s, 82° | - | - |
| 1777698941 | 14.44° C | 64% | 1021.7 hPa | 0 mm | 8.94 m/s, 98° | - | - |
| 1777698640 | 14.44° C | 62% | 1021.7 hPa | 0 mm | 12.52 m/s, 85° | - | - |
| 1777698340 | 14.44° C | 66% | 1021.7 hPa | 0 mm | 8.49 m/s, 86° | - | - |
| 1777698040 | 15° C | 63% | 1021 hPa | 0 mm | 8.05 m/s, 78° | - | - |
| 1777697740 | 15° C | 62% | 1021 hPa | 0 mm | 11.18 m/s, 69° | - | - |
| 1777697440 | 14.44° C | 66% | 1021 hPa | 0 mm | 12.96 m/s, 122° | - | - |
| 1777697140 | 15° C | 70% | 1021.7 hPa | 1.27 mm | 7.6 m/s, 61° | - | - |
| 1777696840 | 14.44° C | 69% | 1021.7 hPa | 1.27 mm | 6.71 m/s, 105° | - | - |
| 1777696540 | 14.44° C | 69% | 1021.7 hPa | 0 mm | 6.26 m/s, 58° | - | - |
* Rain latest hour (hover to see other rain measurements)
** Current wind speed in m/s (hover to see current wind gust speed)